createdAt,value
2023-03-22T00:01:46.576Z,4.46
2023-03-22T00:04:14.361Z,4.40
2023-03-22T00:06:42.159Z,4.40
2023-03-22T00:09:09.980Z,4.40
2023-03-22T00:11:37.708Z,4.30
2023-03-22T00:14:06.319Z,4.30
2023-03-22T00:16:34.103Z,4.20
2023-03-22T00:19:02.058Z,4.20
2023-03-22T00:21:29.849Z,4.20
2023-03-22T00:23:57.669Z,4.20
2023-03-22T00:26:25.745Z,4.20
2023-03-22T00:28:53.549Z,4.20
2023-03-22T00:31:21.420Z,4.20
2023-03-22T00:33:49.204Z,4.16
2023-03-22T00:36:16.969Z,4.10
2023-03-22T00:38:45.326Z,4.00
2023-03-22T00:41:19.083Z,3.96
2023-03-22T00:43:47.477Z,3.90
2023-03-22T00:46:16.168Z,3.90
2023-03-22T00:48:44.507Z,3.84
2023-03-22T00:51:13.055Z,3.80
2023-03-22T00:53:43.078Z,3.80
2023-03-22T00:56:14.405Z,3.70
2023-03-22T00:59:13.026Z,3.70
2023-03-22T01:01:42.730Z,3.70
2023-03-22T01:04:15.447Z,3.60
2023-03-22T01:06:44.198Z,3.60
2023-03-22T01:09:15.179Z,3.52
2023-03-22T01:11:43.750Z,3.50
2023-03-22T01:14:13.980Z,3.50
2023-03-22T01:16:42.171Z,3.50
2023-03-22T01:19:10.847Z,3.60
2023-03-22T01:21:39.289Z,3.62
2023-03-22T01:24:07.790Z,3.70
2023-03-22T01:26:36.096Z,3.74
2023-03-22T01:29:03.884Z,3.80
2023-03-22T01:31:31.719Z,3.80
2023-03-22T01:33:59.662Z,3.84
2023-03-22T01:36:28.733Z,3.90
2023-03-22T01:38:56.870Z,3.90
2023-03-22T01:41:24.776Z,3.90
2023-03-22T01:44:19.811Z,3.92
2023-03-22T01:46:50.433Z,4.00
2023-03-22T01:49:32.900Z,4.00
2023-03-22T01:52:07.073Z,4.00
2023-03-22T01:54:57.597Z,4.00
2023-03-22T01:57:37.648Z,3.90
2023-03-22T02:00:15.754Z,3.90
2023-03-22T02:03:09.953Z,3.90
2023-03-22T02:05:43.769Z,3.90
2023-03-22T02:08:15.226Z,3.84
2023-03-22T02:11:04.197Z,3.90
2023-03-22T02:13:42.874Z,3.90
2023-03-22T02:16:33.027Z,3.90
2023-03-22T02:19:42.644Z,3.90
2023-03-22T02:22:30.405Z,3.90
2023-03-22T02:25:11.763Z,3.90
2023-03-22T02:28:29.556Z,3.90
2023-03-22T02:31:14.487Z,3.80
2023-03-22T02:34:49.424Z,3.70
2023-03-22T02:37:34.827Z,3.70
2023-03-22T02:40:17.040Z,3.70
2023-03-22T02:43:06.354Z,3.70
2023-03-22T02:45:40.842Z,3.70
2023-03-22T02:48:16.433Z,3.70
2023-03-22T02:50:56.002Z,3.80
2023-03-22T02:53:36.604Z,3.90
2023-03-22T02:56:09.853Z,3.90
2023-03-22T02:58:45.933Z,4.00
2023-03-22T03:01:51.425Z,4.10
2023-03-22T03:04:28.511Z,4.20
2023-03-22T03:07:01.448Z,4.24
2023-03-22T03:09:29.212Z,4.20
2023-03-22T03:11:57.056Z,4.24
2023-03-22T03:14:30.730Z,4.30
2023-03-22T03:17:22.824Z,4.30
2023-03-22T03:20:30.802Z,4.30
2023-03-22T03:23:19.929Z,4.30
2023-03-22T03:26:19.337Z,4.40
2023-03-22T03:29:20.645Z,4.40
2023-03-22T03:31:58.059Z,4.40
2023-03-22T03:34:30.726Z,4.50
2023-03-22T03:37:18.647Z,4.50
2023-03-22T03:40:06.409Z,4.60
2023-03-22T03:42:34.302Z,4.60
2023-03-22T03:45:02.164Z,4.60
2023-03-22T03:47:31.678Z,4.60
2023-03-22T03:49:59.581Z,4.60
2023-03-22T03:52:27.724Z,4.70
2023-03-22T03:54:55.563Z,4.70
2023-03-22T03:57:28.563Z,4.70
2023-03-22T03:59:56.440Z,4.70
2023-03-22T04:02:42.671Z,4.74
2023-03-22T04:05:16.773Z,4.76
2023-03-22T04:07:44.931Z,4.80
2023-03-22T04:10:13.547Z,4.80
2023-03-22T04:12:42.047Z,4.80
2023-03-22T04:15:13.033Z,4.80
2023-03-22T04:17:41.712Z,4.80
2023-03-22T04:20:11.028Z,4.80
2023-03-22T04:22:39.745Z,4.82
2023-03-22T04:25:11.912Z,4.88
2023-03-22T04:27:42.740Z,4.90
2023-03-22T04:30:18.862Z,4.90
2023-03-22T04:33:08.729Z,4.90
2023-03-22T04:35:57.150Z,4.90
2023-03-22T04:38:29.632Z,4.94
2023-03-22T04:40:58.008Z,4.98
2023-03-22T04:43:39.632Z,5.00
2023-03-22T04:46:12.954Z,5.00
2023-03-22T04:48:47.373Z,5.08
2023-03-22T04:51:15.518Z,5.10
2023-03-22T04:53:52.291Z,5.10
2023-03-22T04:56:20.673Z,5.10
2023-03-22T04:58:50.612Z,5.20
2023-03-22T05:01:18.776Z,5.20
2023-03-22T05:03:48.454Z,5.28
2023-03-22T05:06:18.633Z,5.30
2023-03-22T05:09:01.077Z,5.30
2023-03-22T05:11:29.180Z,5.40
2023-03-22T05:14:15.667Z,5.40
2023-03-22T05:16:43.862Z,5.40
2023-03-22T05:19:14.257Z,5.40
2023-03-22T05:21:45.508Z,5.50
2023-03-22T05:24:13.291Z,5.50
2023-03-22T05:26:42.575Z,5.50
2023-03-22T05:29:12.735Z,5.60
2023-03-22T05:31:59.286Z,5.60
2023-03-22T05:34:35.583Z,5.60
2023-03-22T05:37:10.309Z,5.70
2023-03-22T05:39:48.970Z,5.70
2023-03-22T05:42:17.210Z,5.70
2023-03-22T05:44:45.334Z,5.70
2023-03-22T05:47:14.194Z,5.80
2023-03-22T05:50:01.945Z,5.80
2023-03-22T05:52:30.468Z,5.80
2023-03-22T05:55:27.314Z,5.80
2023-03-22T05:58:02.042Z,5.82
2023-03-22T06:00:32.217Z,5.90
2023-03-22T06:03:19.225Z,5.90
2023-03-22T06:05:54.942Z,5.90
2023-03-22T06:08:29.798Z,6.00
2023-03-22T06:10:59.780Z,6.00
2023-03-22T06:13:28.191Z,6.02
2023-03-22T06:16:03.005Z,6.10
2023-03-22T06:18:31.604Z,6.10
2023-03-22T06:21:05.682Z,6.20
2023-03-22T06:23:33.636Z,6.30
2023-03-22T06:26:01.763Z,6.40
2023-03-22T06:28:31.234Z,6.50
2023-03-22T06:31:07.429Z,6.60
2023-03-22T06:33:45.594Z,6.68
2023-03-22T06:36:36.309Z,6.70
2023-03-22T06:39:08.051Z,6.80
2023-03-22T06:41:35.942Z,6.80
2023-03-22T06:44:03.922Z,6.80
2023-03-22T06:47:03.211Z,6.90
2023-03-22T06:49:43.528Z,6.90
2023-03-22T06:52:16.415Z,6.90
2023-03-22T06:54:44.878Z,6.90
2023-03-22T06:57:12.911Z,6.90
2023-03-22T06:59:40.830Z,6.94
2023-03-22T07:02:12.093Z,6.98
2023-03-22T07:04:41.496Z,7.00
2023-03-22T07:07:09.445Z,7.00
2023-03-22T07:09:41.303Z,7.00
2023-03-22T07:12:10.043Z,7.00
2023-03-22T07:14:38.697Z,7.08
2023-03-22T07:17:21.643Z,7.10
2023-03-22T07:19:49.436Z,7.10
2023-03-22T07:22:17.995Z,7.14
2023-03-22T07:24:56.132Z,7.20
2023-03-22T07:27:25.452Z,7.28
2023-03-22T07:29:54.428Z,7.30
2023-03-22T07:32:22.898Z,7.38
2023-03-22T07:35:04.884Z,7.40
2023-03-22T07:37:33.394Z,7.40
2023-03-22T07:40:04.120Z,7.40
2023-03-22T07:42:32.167Z,7.40
2023-03-22T07:45:22.177Z,7.40
2023-03-22T07:48:11.338Z,7.40
2023-03-22T07:50:56.493Z,7.50
2023-03-22T07:53:25.869Z,7.60
2023-03-22T07:55:53.880Z,7.70
2023-03-22T07:58:21.798Z,7.82
2023-03-22T08:00:50.463Z,7.98
2023-03-22T08:03:37.819Z,8.10
2023-03-22T08:06:14.438Z,8.30
2023-03-22T08:08:42.933Z,8.40
2023-03-22T08:11:12.507Z,8.50
2023-03-22T08:13:40.656Z,8.60
2023-03-22T08:16:09.993Z,8.66
2023-03-22T08:18:38.588Z,8.70
2023-03-22T08:21:07.526Z,8.80
2023-03-22T08:23:41.849Z,8.90
2023-03-22T08:26:29.117Z,8.94
2023-03-22T08:28:59.958Z,8.98
2023-03-22T08:31:30.615Z,9.00
2023-03-22T08:33:58.650Z,9.00
2023-03-22T08:36:27.694Z,9.10
2023-03-22T08:39:01.718Z,9.10
2023-03-22T08:41:56.455Z,9.20
2023-03-22T08:44:26.214Z,9.30
2023-03-22T08:46:54.432Z,9.38
2023-03-22T08:49:22.923Z,9.40
2023-03-22T08:51:58.037Z,9.50
2023-03-22T08:54:49.212Z,9.60
2023-03-22T08:57:38.769Z,9.62
2023-03-22T09:00:42.419Z,9.70
2023-03-22T09:03:28.741Z,9.90
2023-03-22T09:05:57.131Z,10.00
2023-03-22T09:08:26.136Z,10.10
2023-03-22T09:10:59.642Z,10.20
2023-03-22T09:13:28.524Z,10.20
2023-03-22T09:15:59.740Z,10.30
2023-03-22T09:18:31.206Z,10.50
2023-03-22T09:21:01.934Z,10.60
2023-03-22T09:23:38.193Z,10.70
2023-03-22T09:26:08.714Z,10.80
2023-03-22T09:28:37.547Z,10.86
2023-03-22T09:31:09.434Z,10.90
2023-03-22T09:33:38.589Z,11.00
2023-03-22T09:36:07.786Z,11.00
2023-03-22T09:38:36.607Z,11.20
2023-03-22T09:41:18.039Z,11.30
2023-03-22T09:43:52.858Z,11.30
2023-03-22T09:46:29.892Z,11.40
2023-03-22T09:48:59.922Z,11.66
2023-03-22T09:51:39.062Z,12.00
2023-03-22T09:54:33.690Z,12.20
2023-03-22T09:57:37.432Z,12.30
2023-03-22T10:00:38.314Z,12.40
2023-03-22T10:03:33.850Z,12.50
2023-03-22T10:06:15.427Z,12.60
2023-03-22T10:09:27.225Z,12.80
2023-03-22T10:12:20.027Z,12.90
2023-03-22T10:15:11.206Z,12.96
2023-03-22T10:17:39.314Z,13.10
2023-03-22T10:20:09.866Z,13.20
2023-03-22T10:22:42.165Z,13.10
2023-03-22T10:25:12.192Z,13.26
2023-03-22T10:27:39.964Z,13.50
2023-03-22T10:30:22.181Z,13.60
2023-03-22T10:33:02.940Z,13.86
2023-03-22T10:35:32.089Z,14.00
2023-03-22T10:38:02.645Z,14.24
2023-03-22T10:40:33.610Z,14.40
2023-03-22T10:43:06.460Z,14.44
2023-03-22T10:45:35.330Z,14.50
2023-03-22T10:48:11.910Z,14.60
2023-03-22T10:50:42.417Z,14.60
2023-03-22T10:53:28.825Z,14.68
2023-03-22T10:55:57.010Z,14.60
2023-03-22T10:58:37.906Z,14.60
2023-03-22T11:01:12.018Z,14.54
2023-03-22T11:03:42.205Z,14.54
2023-03-22T11:06:12.493Z,14.56
2023-03-22T11:08:47.732Z,14.50
2023-03-22T11:11:35.948Z,14.60
2023-03-22T11:14:26.770Z,14.70
2023-03-22T11:17:08.147Z,14.80
2023-03-22T11:19:38.351Z,14.84
2023-03-22T11:22:24.689Z,14.90
2023-03-22T11:24:52.748Z,15.10
2023-03-22T11:27:24.305Z,15.16
2023-03-22T11:29:54.399Z,15.00
2023-03-22T11:32:32.847Z,14.90
2023-03-22T11:35:02.508Z,14.74
2023-03-22T11:37:30.700Z,14.60
2023-03-22T11:40:04.746Z,14.60
2023-03-22T11:42:34.164Z,14.70
2023-03-22T11:45:01.991Z,14.80
2023-03-22T11:47:33.841Z,15.00
2023-03-22T11:50:06.557Z,15.10
2023-03-22T11:52:35.786Z,15.20
2023-03-22T11:55:03.758Z,15.30
2023-03-22T11:57:32.363Z,15.40
2023-03-22T12:00:11.759Z,15.50
2023-03-22T12:03:05.720Z,15.60
2023-03-22T12:05:34.670Z,15.70
2023-03-22T12:08:16.345Z,15.70
2023-03-22T12:10:48.213Z,15.70
2023-03-22T12:13:33.263Z,15.70
2023-03-22T12:16:03.677Z,15.70
2023-03-22T12:18:44.886Z,15.90
2023-03-22T12:21:12.746Z,16.08
2023-03-22T12:23:40.556Z,16.10
2023-03-22T12:26:16.528Z,16.20
2023-03-22T12:29:07.252Z,16.10
2023-03-22T12:31:44.956Z,16.00
2023-03-22T12:34:19.178Z,15.90
2023-03-22T12:36:53.194Z,15.80
2023-03-22T12:39:36.016Z,15.80
2023-03-22T12:42:50.750Z,15.78
2023-03-22T12:45:26.665Z,15.74
2023-03-22T12:48:19.334Z,15.72
2023-03-22T12:50:52.591Z,15.70
2023-03-22T12:53:20.745Z,15.80
2023-03-22T12:55:48.681Z,15.90
2023-03-22T12:58:24.162Z,15.90
2023-03-22T13:00:56.457Z,16.00
2023-03-22T13:03:52.781Z,16.10
2023-03-22T13:06:55.594Z,16.10
2023-03-22T13:09:29.886Z,16.12
2023-03-22T13:12:32.449Z,16.18
2023-03-22T13:15:41.204Z,16.20
2023-03-22T13:18:33.593Z,16.24
2023-03-22T13:21:12.697Z,16.40
2023-03-22T13:23:55.876Z,16.50
2023-03-22T13:26:45.534Z,16.50
2023-03-22T13:29:25.056Z,16.50
2023-03-22T13:31:58.504Z,16.50
2023-03-22T13:34:44.976Z,16.52
2023-03-22T13:37:35.185Z,16.58
2023-03-22T13:40:36.603Z,16.50
2023-03-22T13:43:44.720Z,16.60
2023-03-22T13:46:20.128Z,16.60
2023-03-22T13:48:48.846Z,16.70
2023-03-22T13:51:32.110Z,16.80
2023-03-22T13:54:13.357Z,16.96
2023-03-22T13:56:41.923Z,17.10
2023-03-22T14:00:09.144Z,17.10
2023-03-22T14:02:40.014Z,17.10
2023-03-22T14:05:16.861Z,17.10
2023-03-22T14:07:56.375Z,17.20
2023-03-22T14:10:56.869Z,17.10
2023-03-22T14:13:43.489Z,17.10
2023-03-22T14:16:34.252Z,17.10
2023-03-22T14:19:02.397Z,17.10
2023-03-22T14:21:45.681Z,17.10
